sensor_id;sensor_type;location;lat;lon;timestamp;pressure;altitude;pressure_sealevel;temperature;humidity
7824;BME280;3957;48.61947800;9.05303100;2022-10-16T00:00:24;95959.78;;;13.71;100.00
7824;BME280;3957;48.61947800;9.05303100;2022-10-16T00:01:45;95956.75;;;13.67;100.00
7824;BME280;3957;48.61947800;9.05303100;2022-10-16T00:03:06;95961.91;;;13.69;100.00
7824;BME280;3957;48.61947800;9.05303100;2022-10-16T00:04:27;95956.97;;;13.66;100.00
7824;BME280;3957;48.61947800;9.05303100;2022-10-16T00:05:48;95964.59;;;13.69;100.00
7824;BME280;3957;48.61947800;9.05303100;2022-10-16T00:07:09;95964.81;;;13.67;100.00
7824;BME280;3957;48.61947800;9.05303100;2022-10-16T00:08:30;95966.66;;;13.67;100.00
7824;BME280;3957;48.61947800;9.05303100;2022-10-16T00:09:51;95968.09;;;13.69;100.00
7824;BME280;3957;48.61947800;9.05303100;2022-10-16T00:11:18;95967.63;;;13.72;100.00
7824;BME280;3957;48.61947800;9.05303100;2022-10-16T00:12:39;95971.38;;;13.71;100.00
7824;BME280;3957;48.61947800;9.05303100;2022-10-16T00:14:02;95966.44;;;13.68;100.00
7824;BME280;3957;48.61947800;9.05303100;2022-10-16T00:15:23;95966.09;;;13.65;100.00
7824;BME280;3957;48.61947800;9.05303100;2022-10-16T00:16:44;95971.69;;;13.63;100.00
7824;BME280;3957;48.61947800;9.05303100;2022-10-16T00:18:05;95974.59;;;13.61;100.00
7824;BME280;3957;48.61947800;9.05303100;2022-10-16T00:19:26;95974.47;;;13.56;100.00
7824;BME280;3957;48.61947800;9.05303100;2022-10-16T00:20:46;95971.03;;;13.49;100.00
7824;BME280;3957;48.61947800;9.05303100;2022-10-16T00:22:07;95975.97;;;13.52;100.00
7824;BME280;3957;48.61947800;9.05303100;2022-10-16T00:23:28;95983.19;;;13.52;100.00
7824;BME280;3957;48.61947800;9.05303100;2022-10-16T00:24:48;95979.47;;;13.53;100.00
7824;BME280;3957;48.61947800;9.05303100;2022-10-16T00:26:14;95984.59;;;13.54;100.00
7824;BME280;3957;48.61947800;9.05303100;2022-10-16T00:27:35;95980.66;;;13.57;100.00
7824;BME280;3957;48.61947800;9.05303100;2022-10-16T00:28:56;95978.56;;;13.59;100.00
7824;BME280;3957;48.61947800;9.05303100;2022-10-16T00:30:17;95975.72;;;13.54;100.00
7824;BME280;3957;48.61947800;9.05303100;2022-10-16T00:31:37;95973.63;;;13.56;100.00
7824;BME280;3957;48.61947800;9.05303100;2022-10-16T00:32:58;95967.44;;;13.55;100.00
7824;BME280;3957;48.61947800;9.05303100;2022-10-16T00:34:19;95971.84;;;13.50;100.00
7824;BME280;3957;48.61947800;9.05303100;2022-10-16T00:35:39;95971.69;;;13.44;100.00
7824;BME280;3957;48.61947800;9.05303100;2022-10-16T00:37:00;95971.91;;;13.43;100.00
7824;BME280;3957;48.61947800;9.05303100;2022-10-16T00:38:21;95963.06;;;13.42;100.00
7824;BME280;3957;48.61947800;9.05303100;2022-10-16T00:39:42;95967.75;;;13.47;100.00
7824;BME280;3957;48.61947800;9.05303100;2022-10-16T00:41:03;95971.13;;;13.42;100.00
7824;BME280;3957;48.61947800;9.05303100;2022-10-16T00:42:24;95967.34;;;13.43;100.00
7824;BME280;3957;48.61947800;9.05303100;2022-10-16T00:43:46;95964.09;;;13.41;100.00
7824;BME280;3957;48.61947800;9.05303100;2022-10-16T00:45:08;95961.25;;;13.36;100.00
7824;BME280;3957;48.61947800;9.05303100;2022-10-16T00:46:35;95958.56;;;13.36;100.00
7824;BME280;3957;48.61947800;9.05303100;2022-10-16T00:47:57;95956.91;;;13.35;100.00
7824;BME280;3957;48.61947800;9.05303100;2022-10-16T00:49:20;95955.69;;;13.31;100.00
7824;BME280;3957;48.61947800;9.05303100;2022-10-16T00:50:41;95953.44;;;13.28;100.00
7824;BME280;3957;48.61947800;9.05303100;2022-10-16T00:52:05;95966.06;;;13.27;100.00
7824;BME280;3957;48.61947800;9.05303100;2022-10-16T00:53:27;95969.34;;;13.30;100.00
7824;BME280;3957;48.61947800;9.05303100;2022-10-16T00:54:49;95966.88;;;13.28;100.00
7824;BME280;3957;48.61947800;9.05303100;2022-10-16T00:56:10;95968.75;;;13.27;100.00
7824;BME280;3957;48.61947800;9.05303100;2022-10-16T00:57:31;95972.50;;;13.26;100.00
7824;BME280;3957;48.61947800;9.05303100;2022-10-16T00:58:52;95976.66;;;13.22;100.00
7824;BME280;3957;48.61947800;9.05303100;2022-10-16T01:00:18;95970.47;;;13.22;100.00
7824;BME280;3957;48.61947800;9.05303100;2022-10-16T01:01:39;95970.94;;;13.19;100.00
7824;BME280;3957;48.61947800;9.05303100;2022-10-16T01:03:02;95971.59;;;13.14;100.00
7824;BME280;3957;48.61947800;9.05303100;2022-10-16T01:04:24;95975.31;;;13.13;100.00
7824;BME280;3957;48.61947800;9.05303100;2022-10-16T01:05:50;95979.88;;;13.13;100.00
7824;BME280;3957;48.61947800;9.05303100;2022-10-16T01:07:24;95973.91;;;13.10;100.00
7824;BME280;3957;48.61947800;9.05303100;2022-10-16T01:08:55;95976.44;;;13.05;100.00
7824;BME280;3957;48.61947800;9.05303100;2022-10-16T01:10:30;95972.56;;;13.01;100.00
7824;BME280;3957;48.61947800;9.05303100;2022-10-16T01:13:27;95982.25;;;13.02;100.00
7824;BME280;3957;48.61947800;9.05303100;2022-10-16T01:14:58;95986.97;;;13.07;100.00
7824;BME280;3957;48.61947800;9.05303100;2022-10-16T01:16:52;95991.06;;;13.09;100.00
7824;BME280;3957;48.61947800;9.05303100;2022-10-16T01:18:36;95983.81;;;13.10;100.00
7824;BME280;3957;48.61947800;9.05303100;2022-10-16T01:21:32;95983.91;;;13.22;100.00
7824;BME280;3957;48.61947800;9.05303100;2022-10-16T01:24:37;95989.34;;;13.15;100.00
7824;BME280;3957;48.61947800;9.05303100;2022-10-16T01:27:35;95980.47;;;13.15;100.00
7824;BME280;3957;48.61947800;9.05303100;2022-10-16T01:29:17;95978.66;;;13.08;100.00
7824;BME280;3957;48.61947800;9.05303100;2022-10-16T01:30:42;95976.03;;;13.02;100.00
7824;BME280;3957;48.61947800;9.05303100;2022-10-16T01:32:33;95974.03;;;12.97;100.00
7824;BME280;3957;48.61947800;9.05303100;2022-10-16T01:34:32;95971.63;;;12.89;100.00
7824;BME280;3957;48.61947800;9.05303100;2022-10-16T01:36:03;95978.25;;;12.86;100.00
7824;BME280;3957;48.61947800;9.05303100;2022-10-16T01:37:33;95975.97;;;12.90;100.00
7824;BME280;3957;48.61947800;9.05303100;2022-10-16T01:39:00;95976.56;;;12.92;100.00
7824;BME280;3957;48.61947800;9.05303100;2022-10-16T01:40:24;95978.22;;;12.93;100.00
7824;BME280;3957;48.61947800;9.05303100;2022-10-16T01:41:49;95977.19;;;12.94;100.00
7824;BME280;3957;48.61947800;9.05303100;2022-10-16T01:43:18;95983.59;;;12.93;100.00
7824;BME280;3957;48.61947800;9.05303100;2022-10-16T01:44:41;95984.38;;;12.93;100.00
7824;BME280;3957;48.61947800;9.05303100;2022-10-16T01:46:03;95978.22;;;12.93;100.00
7824;BME280;3957;48.61947800;9.05303100;2022-10-16T01:47:26;95976.56;;;12.92;100.00
7824;BME280;3957;48.61947800;9.05303100;2022-10-16T01:48:48;95982.53;;;12.94;100.00
7824;BME280;3957;48.61947800;9.05303100;2022-10-16T01:50:12;95977.75;;;12.96;100.00
7824;BME280;3957;48.61947800;9.05303100;2022-10-16T01:51:35;95981.13;;;12.91;100.00
7824;BME280;3957;48.61947800;9.05303100;2022-10-16T01:52:58;95981.94;;;12.92;100.00
7824;BME280;3957;48.61947800;9.05303100;2022-10-16T01:54:20;95975.97;;;12.90;100.00
7824;BME280;3957;48.61947800;9.05303100;2022-10-16T01:55:44;95977.81;;;12.89;100.00
7824;BME280;3957;48.61947800;9.05303100;2022-10-16T01:57:07;95973.28;;;12.90;100.00
7824;BME280;3957;48.61947800;9.05303100;2022-10-16T01:58:33;95971.25;;;12.85;100.00
7824;BME280;3957;48.61947800;9.05303100;2022-10-16T02:00:01;95975.19;;;12.83;100.00
7824;BME280;3957;48.61947800;9.05303100;2022-10-16T02:01:35;95969.47;;;12.79;100.00
7824;BME280;3957;48.61947800;9.05303100;2022-10-16T02:02:57;95971.53;;;12.77;100.00
7824;BME280;3957;48.61947800;9.05303100;2022-10-16T02:04:28;95968.31;;;12.68;100.00
7824;BME280;3957;48.61947800;9.05303100;2022-10-16T02:05:53;95969.34;;;12.67;100.00
7824;BME280;3957;48.61947800;9.05303100;2022-10-16T02:07:15;95971.66;;;12.64;100.00
7824;BME280;3957;48.61947800;9.05303100;2022-10-16T02:08:36;95970.22;;;12.61;100.00
7824;BME280;3957;48.61947800;9.05303100;2022-10-16T02:09:57;95973.34;;;12.58;100.00
7824;BME280;3957;48.61947800;9.05303100;2022-10-16T02:11:18;95978.94;;;12.56;100.00
7824;BME280;3957;48.61947800;9.05303100;2022-10-16T02:12:42;95985.56;;;12.54;100.00
7824;BME280;3957;48.61947800;9.05303100;2022-10-16T02:14:05;95979.16;;;12.55;100.00
7824;BME280;3957;48.61947800;9.05303100;2022-10-16T02:15:26;95980.00;;;12.55;100.00
7824;BME280;3957;48.61947800;9.05303100;2022-10-16T02:16:47;95981.03;;;12.54;100.00
7824;BME280;3957;48.61947800;9.05303100;2022-10-16T02:18:09;95986.38;;;12.54;100.00
7824;BME280;3957;48.61947800;9.05303100;2022-10-16T02:19:30;95988.84;;;12.56;100.00
7824;BME280;3957;48.61947800;9.05303100;2022-10-16T02:20:53;95994.44;;;12.54;100.00
7824;BME280;3957;48.61947800;9.05303100;2022-10-16T02:22:32;95994.88;;;12.51;100.00
7824;BME280;3957;48.61947800;9.05303100;2022-10-16T02:25:38;95987.06;;;12.50;100.00
7824;BME280;3957;48.61947800;9.05303100;2022-10-16T02:27:10;95988.53;;;12.46;100.00
7824;BME280;3957;48.61947800;9.05303100;2022-10-16T02:28:40;95984.41;;;12.43;100.00
7824;BME280;3957;48.61947800;9.05303100;2022-10-16T02:30:14;95988.94;;;12.42;100.00
7824;BME280;3957;48.61947800;9.05303100;2022-10-16T02:31:43;95977.63;;;12.40;100.00
7824;BME280;3957;48.61947800;9.05303100;2022-10-16T02:33:10;95971.63;;;12.38;100.00
7824;BME280;3957;48.61947800;9.05303100;2022-10-16T02:34:34;95973.09;;;12.34;100.00
7824;BME280;3957;48.61947800;9.05303100;2022-10-16T02:35:57;95974.97;;;12.34;100.00
7824;BME280;3957;48.61947800;9.05303100;2022-10-16T02:37:18;95980.16;;;12.29;100.00
7824;BME280;3957;48.61947800;9.05303100;2022-10-16T02:38:40;95977.47;;;12.29;100.00
7824;BME280;3957;48.61947800;9.05303100;2022-10-16T02:40:01;95970.91;;;12.24;100.00
7824;BME280;3957;48.61947800;9.05303100;2022-10-16T02:41:23;95975.28;;;12.19;100.00
7824;BME280;3957;48.61947800;9.05303100;2022-10-16T02:42:44;95979.00;;;12.18;100.00
7824;BME280;3957;48.61947800;9.05303100;2022-10-16T02:44:05;95977.78;;;12.14;100.00
7824;BME280;3957;48.61947800;9.05303100;2022-10-16T02:45:26;95978.84;;;12.13;100.00
7824;BME280;3957;48.61947800;9.05303100;2022-10-16T02:46:47;95977.16;;;12.18;100.00
7824;BME280;3957;48.61947800;9.05303100;2022-10-16T02:48:07;95977.53;;;12.22;100.00
7824;BME280;3957;48.61947800;9.05303100;2022-10-16T02:49:28;95982.84;;;12.29;100.00
7824;BME280;3957;48.61947800;9.05303100;2022-10-16T02:50:49;95981.78;;;12.36;100.00
7824;BME280;3957;48.61947800;9.05303100;2022-10-16T02:52:09;95980.88;;;12.42;100.00
7824;BME280;3957;48.61947800;9.05303100;2022-10-16T02:53:30;95983.75;;;12.48;100.00
7824;BME280;3957;48.61947800;9.05303100;2022-10-16T02:54:51;95976.31;;;12.50;100.00
7824;BME280;3957;48.61947800;9.05303100;2022-10-16T02:56:12;95986.84;;;12.51;100.00
7824;BME280;3957;48.61947800;9.05303100;2022-10-16T02:57:33;95989.06;;;12.54;100.00
7824;BME280;3957;48.61947800;9.05303100;2022-10-16T02:58:53;95985.94;;;12.57;100.00
7824;BME280;3957;48.61947800;9.05303100;2022-10-16T03:00:16;95985.50;;;12.61;100.00
7824;BME280;3957;48.61947800;9.05303100;2022-10-16T03:01:37;95994.16;;;12.63;100.00
7824;BME280;3957;48.61947800;9.05303100;2022-10-16T03:02:58;95989.38;;;12.65;100.00
7824;BME280;3957;48.61947800;9.05303100;2022-10-16T03:04:19;95993.72;;;12.66;100.00
7824;BME280;3957;48.61947800;9.05303100;2022-10-16T03:05:39;95995.81;;;12.64;100.00
7824;BME280;3957;48.61947800;9.05303100;2022-10-16T03:07:00;95990.22;;;12.65;100.00
7824;BME280;3957;48.61947800;9.05303100;2022-10-16T03:08:21;95993.94;;;12.64;100.00
7824;BME280;3957;48.61947800;9.05303100;2022-10-16T03:09:44;95989.38;;;12.65;100.00
7824;BME280;3957;48.61947800;9.05303100;2022-10-16T03:11:04;95987.53;;;12.65;100.00
7824;BME280;3957;48.61947800;9.05303100;2022-10-16T03:12:28;95983.44;;;12.63;100.00
7824;BME280;3957;48.61947800;9.05303100;2022-10-16T03:13:49;95990.66;;;12.62;100.00
7824;BME280;3957;48.61947800;9.05303100;2022-10-16T03:15:10;95987.16;;;12.62;100.00
7824;BME280;3957;48.61947800;9.05303100;2022-10-16T03:16:30;95984.47;;;12.62;100.00
7824;BME280;3957;48.61947800;9.05303100;2022-10-16T03:17:51;95984.06;;;12.58;100.00
7824;BME280;3957;48.61947800;9.05303100;2022-10-16T03:19:12;95988.41;;;12.59;100.00
7824;BME280;3957;48.61947800;9.05303100;2022-10-16T03:20:33;95979.16;;;12.55;100.00
7824;BME280;3957;48.61947800;9.05303100;2022-10-16T03:21:54;95978.34;;;12.54;100.00
7824;BME280;3957;48.61947800;9.05303100;2022-10-16T03:23:14;95975.25;;;12.51;100.00
7824;BME280;3957;48.61947800;9.05303100;2022-10-16T03:24:35;95981.47;;;12.51;100.00
7824;BME280;3957;48.61947800;9.05303100;2022-10-16T03:25:56;95980.41;;;12.52;100.00
7824;BME280;3957;48.61947800;9.05303100;2022-10-16T03:27:17;95979.81;;;12.50;100.00
7824;BME280;3957;48.61947800;9.05303100;2022-10-16T03:28:37;95984.16;;;12.51;100.00
7824;BME280;3957;48.61947800;9.05303100;2022-10-16T03:29:58;95984.97;;;12.52;100.00
7824;BME280;3957;48.61947800;9.05303100;2022-10-16T03:31:19;95986.63;;;12.53;100.00
7824;BME280;3957;48.61947800;9.05303100;2022-10-16T03:32:39;95983.72;;;12.54;100.00
7824;BME280;3957;48.61947800;9.05303100;2022-10-16T03:34:00;95981.03;;;12.54;100.00
7824;BME280;3957;48.61947800;9.05303100;2022-10-16T03:35:22;95988.63;;;12.57;100.00
7824;BME280;3957;48.61947800;9.05303100;2022-10-16T03:36:43;95980.75;;;12.63;100.00
7824;BME280;3957;48.61947800;9.05303100;2022-10-16T03:38:03;95981.34;;;12.65;100.00
7824;BME280;3957;48.61947800;9.05303100;2022-10-16T03:39:24;95978.44;;;12.66;100.00
7824;BME280;3957;48.61947800;9.05303100;2022-10-16T03:40:45;95981.13;;;12.66;100.00
7824;BME280;3957;48.61947800;9.05303100;2022-10-16T03:42:06;95980.91;;;12.68;100.00
7824;BME280;3957;48.61947800;9.05303100;2022-10-16T03:43:27;95983.59;;;12.68;100.00
7824;BME280;3957;48.61947800;9.05303100;2022-10-16T03:44:47;95983.59;;;12.68;100.00
7824;BME280;3957;48.61947800;9.05303100;2022-10-16T03:46:08;95980.09;;;12.67;100.00
7824;BME280;3957;48.61947800;9.05303100;2022-10-16T03:47:29;95990.00;;;12.67;100.00
7824;BME280;3957;48.61947800;9.05303100;2022-10-16T03:48:49;95993.72;;;12.66;100.00
7824;BME280;3957;48.61947800;9.05303100;2022-10-16T03:50:12;95993.72;;;12.66;100.00
7824;BME280;3957;48.61947800;9.05303100;2022-10-16T03:51:32;95998.06;;;12.67;100.00
7824;BME280;3957;48.61947800;9.05303100;2022-10-16T03:52:53;95995.59;;;12.65;100.00
7824;BME280;3957;48.61947800;9.05303100;2022-10-16T03:54:14;95997.84;;;12.68;100.00
7824;BME280;3957;48.61947800;9.05303100;2022-10-16T03:55:35;95995.59;;;12.65;100.00
7824;BME280;3957;48.61947800;9.05303100;2022-10-16T03:56:55;95998.06;;;12.67;100.00
7824;BME280;3957;48.61947800;9.05303100;2022-10-16T03:58:16;95996.19;;;12.67;100.00
7824;BME280;3957;48.61947800;9.05303100;2022-10-16T03:59:37;95996.81;;;12.69;100.00
7824;BME280;3957;48.61947800;9.05303100;2022-10-16T04:00:58;96002.75;;;12.71;100.00
7824;BME280;3957;48.61947800;9.05303100;2022-10-16T04:02:19;95995.75;;;12.70;100.00
7824;BME280;3957;48.61947800;9.05303100;2022-10-16T04:03:39;96000.06;;;12.71;100.00
7824;BME280;3957;48.61947800;9.05303100;2022-10-16T04:05:00;96000.91;;;12.72;100.00
7824;BME280;3957;48.61947800;9.05303100;2022-10-16T04:06:21;95996.94;;;12.74;100.00
7824;BME280;3957;48.61947800;9.05303100;2022-10-16T04:07:42;95999.63;;;12.74;100.00
7824;BME280;3957;48.61947800;9.05303100;2022-10-16T04:09:03;96004.41;;;12.72;100.00
7824;BME280;3957;48.61947800;9.05303100;2022-10-16T04:10:24;95988.75;;;12.69;100.00
7824;BME280;3957;48.61947800;9.05303100;2022-10-16T04:11:44;95992.47;;;12.68;100.00
7824;BME280;3957;48.61947800;9.05303100;2022-10-16T04:13:05;95994.53;;;12.66;100.00
7824;BME280;3957;48.61947800;9.05303100;2022-10-16T04:14:26;95993.94;;;12.64;100.00
7824;BME280;3957;48.61947800;9.05303100;2022-10-16T04:15:46;95993.34;;;12.62;100.00
7824;BME280;3957;48.61947800;9.05303100;2022-10-16T04:17:07;95994.97;;;12.63;100.00
7824;BME280;3957;48.61947800;9.05303100;2022-10-16T04:18:28;95996.63;;;12.64;100.00
7824;BME280;3957;48.61947800;9.05303100;2022-10-16T04:19:49;96000.34;;;12.63;100.00
7824;BME280;3957;48.61947800;9.05303100;2022-10-16T04:21:10;95995.97;;;12.69;100.00
7824;BME280;3957;48.61947800;9.05303100;2022-10-16T04:22:31;95996.75;;;12.76;100.00
7824;BME280;3957;48.61947800;9.05303100;2022-10-16T04:23:51;95997.50;;;12.83;100.00
7824;BME280;3957;48.61947800;9.05303100;2022-10-16T04:25:12;95991.91;;;12.85;100.00
7824;BME280;3957;48.61947800;9.05303100;2022-10-16T04:26:33;95991.69;;;12.86;100.00
7824;BME280;3957;48.61947800;9.05303100;2022-10-16T04:27:54;95996.03;;;12.87;100.00
7824;BME280;3957;48.61947800;9.05303100;2022-10-16T04:29:15;95991.47;;;12.88;100.00
7824;BME280;3957;48.61947800;9.05303100;2022-10-16T04:30:38;95988.56;;;12.89;100.00
7824;BME280;3957;48.61947800;9.05303100;2022-10-16T04:31:59;95989.97;;;12.92;100.00
7824;BME280;3957;48.61947800;9.05303100;2022-10-16T04:33:20;95995.34;;;12.92;100.00
7824;BME280;3957;48.61947800;9.05303100;2022-10-16T04:34:41;95999.69;;;12.93;100.00
7824;BME280;3957;48.61947800;9.05303100;2022-10-16T04:36:03;95994.78;;;12.90;100.00
7824;BME280;3957;48.61947800;9.05303100;2022-10-16T04:37:25;95995.13;;;12.93;100.00
7824;BME280;3957;48.61947800;9.05303100;2022-10-16T04:38:46;95994.91;;;12.95;100.00
7824;BME280;3957;48.61947800;9.05303100;2022-10-16T04:40:07;96002.16;;;12.95;100.00
7824;BME280;3957;48.61947800;9.05303100;2022-10-16T04:41:28;96003.81;;;12.96;100.00
7824;BME280;3957;48.61947800;9.05303100;2022-10-16T04:42:49;95995.75;;;12.96;100.00
7824;BME280;3957;48.61947800;9.05303100;2022-10-16T04:44:10;96000.50;;;12.93;100.00
7824;BME280;3957;48.61947800;9.05303100;2022-10-16T04:45:31;96001.53;;;12.92;100.00
7824;BME280;3957;48.61947800;9.05303100;2022-10-16T04:46:51;96003.41;;;12.92;100.00
7824;BME280;3957;48.61947800;9.05303100;2022-10-16T04:48:12;96006.31;;;12.90;100.00
7824;BME280;3957;48.61947800;9.05303100;2022-10-16T04:49:33;96004.03;;;12.94;100.00
7824;BME280;3957;48.61947800;9.05303100;2022-10-16T04:50:54;96002.81;;;12.90;100.00
7824;BME280;3957;48.61947800;9.05303100;2022-10-16T04:52:14;96003.84;;;12.89;100.00
7824;BME280;3957;48.61947800;9.05303100;2022-10-16T04:53:35;96003.84;;;12.89;100.00
7824;BME280;3957;48.61947800;9.05303100;2022-10-16T04:54:57;96010.25;;;12.88;100.00
7824;BME280;3957;48.61947800;9.05303100;2022-10-16T04:56:21;96008.63;;;12.87;100.00
7824;BME280;3957;48.61947800;9.05303100;2022-10-16T04:57:42;96009.69;;;12.86;100.00
7824;BME280;3957;48.61947800;9.05303100;2022-10-16T04:59:03;96016.91;;;12.85;100.00
7824;BME280;3957;48.61947800;9.05303100;2022-10-16T05:00:23;96017.97;;;12.84;100.00
7824;BME280;3957;48.61947800;9.05303100;2022-10-16T05:01:45;96016.91;;;12.85;100.00
7824;BME280;3957;48.61947800;9.05303100;2022-10-16T05:03:05;96018.78;;;12.85;100.00
7824;BME280;3957;48.61947800;9.05303100;2022-10-16T05:04:29;96020.66;;;12.84;100.00
7824;BME280;3957;48.61947800;9.05303100;2022-10-16T05:05:49;96027.88;;;12.84;100.00
7824;BME280;3957;48.61947800;9.05303100;2022-10-16T05:07:10;96027.88;;;12.84;100.00
7824;BME280;3957;48.61947800;9.05303100;2022-10-16T05:08:31;96020.03;;;12.82;100.00
7824;BME280;3957;48.61947800;9.05303100;2022-10-16T05:09:51;96024.13;;;12.85;100.00
7824;BME280;3957;48.61947800;9.05303100;2022-10-16T05:11:12;96019.00;;;12.83;100.00
7824;BME280;3957;48.61947800;9.05303100;2022-10-16T05:12:33;96023.34;;;12.84;100.00
7824;BME280;3957;48.61947800;9.05303100;2022-10-16T05:13:54;96021.91;;;12.82;100.00
7824;BME280;3957;48.61947800;9.05303100;2022-10-16T05:15:15;96026.22;;;12.83;100.00
7824;BME280;3957;48.61947800;9.05303100;2022-10-16T05:16:36;96022.13;;;12.80;100.00
7824;BME280;3957;48.61947800;9.05303100;2022-10-16T05:17:56;96015.31;;;12.78;100.00
7824;BME280;3957;48.61947800;9.05303100;2022-10-16T05:19:17;96012.47;;;12.72;100.00
7824;BME280;3957;48.61947800;9.05303100;2022-10-16T05:20:38;96012.91;;;12.69;100.00
7824;BME280;3957;48.61947800;9.05303100;2022-10-16T05:21:59;96011.31;;;12.62;100.00
7824;BME280;3957;48.61947800;9.05303100;2022-10-16T05:23:19;96017.34;;;12.57;100.00
7824;BME280;3957;48.61947800;9.05303100;2022-10-16T05:24:40;96022.94;;;12.55;100.00
7824;BME280;3957;48.61947800;9.05303100;2022-10-16T05:26:01;96020.25;;;12.55;100.00
7824;BME280;3957;48.61947800;9.05303100;2022-10-16T05:27:21;96023.56;;;12.51;100.00
7824;BME280;3957;48.61947800;9.05303100;2022-10-16T05:28:42;96024.00;;;12.48;100.00
7824;BME280;3957;48.61947800;9.05303100;2022-10-16T05:30:03;96026.09;;;12.46;100.00
7824;BME280;3957;48.61947800;9.05303100;2022-10-16T05:31:24;96023.81;;;12.42;100.00
7824;BME280;3957;48.61947800;9.05303100;2022-10-16T05:32:49;96029.84;;;12.38;100.00
7824;BME280;3957;48.61947800;9.05303100;2022-10-16T05:34:10;96031.09;;;12.35;100.00
7824;BME280;3957;48.61947800;9.05303100;2022-10-16T05:35:31;96031.31;;;12.34;100.00
7824;BME280;3957;48.61947800;9.05303100;2022-10-16T05:36:52;96029.91;;;12.31;100.00
7824;BME280;3957;48.61947800;9.05303100;2022-10-16T05:38:13;96030.72;;;12.32;100.00
7824;BME280;3957;48.61947800;9.05303100;2022-10-16T05:39:34;96032.56;;;12.31;100.00
7824;BME280;3957;48.61947800;9.05303100;2022-10-16T05:40:54;96040.03;;;12.29;100.00
7824;BME280;3957;48.61947800;9.05303100;2022-10-16T05:42:16;96037.97;;;12.24;100.00
7824;BME280;3957;48.61947800;9.05303100;2022-10-16T05:43:37;96039.63;;;12.25;100.00
7824;BME280;3957;48.61947800;9.05303100;2022-10-16T05:44:58;96045.44;;;12.22;100.00
7824;BME280;3957;48.61947800;9.05303100;2022-10-16T05:46:19;96041.91;;;12.22;100.00
7824;BME280;3957;48.61947800;9.05303100;2022-10-16T05:47:40;96047.28;;;12.22;100.00
7824;BME280;3957;48.61947800;9.05303100;2022-10-16T05:49:00;96048.56;;;12.19;100.00
7824;BME280;3957;48.61947800;9.05303100;2022-10-16T05:50:21;96044.81;;;12.20;100.00
7824;BME280;3957;48.61947800;9.05303100;2022-10-16T05:51:42;96044.81;;;12.20;100.00
7824;BME280;3957;48.61947800;9.05303100;2022-10-16T05:53:03;96044.59;;;12.22;100.00
7824;BME280;3957;48.61947800;9.05303100;2022-10-16T05:54:23;96049.13;;;12.28;100.00
7824;BME280;3957;48.61947800;9.05303100;2022-10-16T05:55:51;96046.34;;;12.41;100.00
7824;BME280;3957;48.61947800;9.05303100;2022-10-16T05:57:12;96047.91;;;12.56;100.00
7824;BME280;3957;48.61947800;9.05303100;2022-10-16T05:58:35;96047.84;;;12.63;100.00
7824;BME280;3957;48.61947800;9.05303100;2022-10-16T05:59:56;96052.13;;;12.70;100.00
7824;BME280;3957;48.61947800;9.05303100;2022-10-16T06:01:18;96057.84;;;12.81;100.00
7824;BME280;3957;48.61947800;9.05303100;2022-10-16T06:02:41;96059.06;;;12.85;100.00
7824;BME280;3957;48.61947800;9.05303100;2022-10-16T06:04:02;96059.22;;;12.90;100.00
7824;BME280;3957;48.61947800;9.05303100;2022-10-16T06:05:23;96068.25;;;12.96;100.00
7824;BME280;3957;48.61947800;9.05303100;2022-10-16T06:06:44;96060.34;;;13.01;100.00
7824;BME280;3957;48.61947800;9.05303100;2022-10-16T06:08:05;96059.03;;;13.10;100.00
7824;BME280;3957;48.61947800;9.05303100;2022-10-16T06:09:25;96054.66;;;13.16;100.00
7824;BME280;3957;48.61947800;9.05303100;2022-10-16T06:10:47;96061.00;;;13.21;100.00
7824;BME280;3957;48.61947800;9.05303100;2022-10-16T06:12:08;96061.97;;;13.27;100.00
7824;BME280;3957;48.61947800;9.05303100;2022-10-16T06:13:29;96060.88;;;13.35;100.00
7824;BME280;3957;48.61947800;9.05303100;2022-10-16T06:14:50;96068.69;;;13.43;100.00
7824;BME280;3957;48.61947800;9.05303100;2022-10-16T06:16:12;96064.44;;;13.54;100.00
7824;BME280;3957;48.61947800;9.05303100;2022-10-16T06:17:33;96068.69;;;13.61;100.00
7824;BME280;3957;48.61947800;9.05303100;2022-10-16T06:18:54;96070.13;;;13.64;100.00
7824;BME280;3957;48.61947800;9.05303100;2022-10-16T06:20:16;96070.28;;;13.69;100.00
7824;BME280;3957;48.61947800;9.05303100;2022-10-16T06:21:37;96071.00;;;13.76;100.00
7824;BME280;3957;48.61947800;9.05303100;2022-10-16T06:22:57;96065.34;;;13.85;100.00
7824;BME280;3957;48.61947800;9.05303100;2022-10-16T06:24:18;96070.88;;;13.90;100.00
7824;BME280;3957;48.61947800;9.05303100;2022-10-16T06:25:39;96073.72;;;13.95;100.00
7824;BME280;3957;48.61947800;9.05303100;2022-10-16T06:27:00;96066.53;;;14.07;100.00
7824;BME280;3957;48.61947800;9.05303100;2022-10-16T06:28:20;96056.72;;;14.13;100.00
7824;BME280;3957;48.61947800;9.05303100;2022-10-16T06:29:41;96066.22;;;14.16;100.00
7824;BME280;3957;48.61947800;9.05303100;2022-10-16T06:31:04;96066.56;;;14.19;100.00
7824;BME280;3957;48.61947800;9.05303100;2022-10-16T06:32:27;96063.09;;;14.31;100.00
7824;BME280;3957;48.61947800;9.05303100;2022-10-16T06:33:51;96071.69;;;14.39;100.00
7824;BME280;3957;48.61947800;9.05303100;2022-10-16T06:35:12;96070.19;;;14.43;100.00
7824;BME280;3957;48.61947800;9.05303100;2022-10-16T06:36:32;96078.19;;;14.50;100.00
7824;BME280;3957;48.61947800;9.05303100;2022-10-16T06:37:53;96075.59;;;14.55;100.00